Time;durP1;ratioP1;P1;durP2;ratioP2;P2;SDS_P1;SDS_P2;PMS_P1;PMS_P2;Temp;Humidity;BMP_temperature;BMP_pressure;BME280_temperature;BME280_humidity;BME280_pressure;Samples;Min_cycle;Max_cycle;Signal;HPM_P1;HPM_P2
2022/03/03 00:00:15;;;;;;;25.87;21.63;;;2.40;1.00;2.90;100877.00;;;;5012022;28;20450;-83
2022/03/03 00:02:44;;;;;;;28.03;21.50;;;2.30;1.00;2.80;100915.00;;;;5017415;28;20506;-83
2022/03/03 00:05:14;;;;;;;26.07;21.77;;;2.30;1.00;2.80;100888.00;;;;5018705;28;20481;-83
2022/03/03 00:07:42;;;;;;;30.17;21.80;;;2.20;1.00;2.80;100907.00;;;;5035261;28;20473;-83
2022/03/03 00:10:11;;;;;;;23.63;19.73;;;2.20;1.00;2.90;100879.00;;;;5002611;28;20471;-83
2022/03/03 00:12:41;;;;;;;24.47;20.77;;;2.20;1.00;2.80;100871.00;;;;5006479;28;20463;-81
2022/03/03 00:15:10;;;;;;;27.77;21.93;;;2.20;1.00;2.70;100854.00;;;;4999222;28;20467;-81
2022/03/03 00:17:38;;;;;;;28.23;22.60;;;2.30;1.00;2.60;100833.00;;;;4990114;28;20451;-82
2022/03/03 00:20:07;;;;;;;34.53;22.30;;;2.10;1.00;2.80;100942.00;;;;4996096;28;20530;-83
2022/03/03 00:22:36;;;;;;;27.50;22.70;;;2.10;1.00;2.70;100924.00;;;;4991826;28;20788;-81
2022/03/03 00:25:06;;;;;;;35.60;26.70;;;2.50;1.00;2.70;100912.00;;;;5007343;28;20528;-78
2022/03/03 00:27:34;;;;;;;38.53;31.10;;;2.10;1.00;2.70;100933.00;;;;4988814;28;20542;-79
2022/03/03 00:30:05;;;;;;;33.17;25.87;;;2.10;1.00;2.80;100927.00;;;;5004877;28;20463;-82
2022/03/03 00:32:40;;;;;;;33.30;28.03;;;2.10;1.00;2.70;100927.00;;;;4991295;28;20783;-81
2022/03/03 00:35:10;;;;;;;34.47;29.47;;;2.40;1.00;2.60;100939.00;;;;4998909;28;20474;-78
2022/03/03 00:37:39;;;;;;;34.37;27.67;;;2.10;1.00;2.60;100926.00;;;;4991182;28;21033;-82
2022/03/03 00:40:09;;;;;;;34.13;26.73;;;2.00;1.00;2.70;100922.00;;;;4993267;28;20604;-85
2022/03/03 00:42:38;;;;;;;31.67;26.40;;;2.00;1.00;2.60;100926.00;;;;5006182;28;20469;-82
2022/03/03 00:45:09;;;;;;;27.93;24.07;;;2.00;1.00;2.70;100933.00;;;;5016577;28;20458;-84
2022/03/03 00:47:37;;;;;;;30.17;25.60;;;2.00;1.00;2.60;100903.00;;;;5018566;28;20546;-82
2022/03/03 00:50:07;;;;;;;30.27;25.70;;;2.00;1.00;2.60;100892.00;;;;5018640;28;20439;-83
2022/03/03 00:52:36;;;;;;;26.40;22.73;;;2.00;1.00;2.50;100897.00;;;;5019309;28;20458;-84
2022/03/03 00:55:05;;;;;;;29.30;22.03;;;2.00;1.00;2.50;100875.00;;;;5031067;28;20494;-81
2022/03/03 00:57:33;;;;;;;33.10;26.07;;;1.90;1.00;2.50;100899.00;;;;5014939;28;20557;-82
2022/03/03 01:00:02;;;;;;;30.20;24.63;;;1.90;1.00;2.50;100891.00;;;;4996482;28;20508;-84
2022/03/03 01:02:32;;;;;;;34.83;23.23;;;2.30;1.00;2.40;100907.00;;;;5002010;28;20458;-84
2022/03/03 01:05:00;;;;;;;26.83;23.57;;;1.90;1.00;2.40;100885.00;;;;5003343;28;20495;-84
2022/03/03 01:07:29;;;;;;;25.33;22.50;;;1.80;1.00;2.40;100863.00;;;;4999296;28;20478;-83
2022/03/03 01:09:58;;;;;;;28.23;23.90;;;1.30;1.00;2.30;100851.00;;;;4999780;28;20472;-82
2022/03/03 01:12:26;;;;;;;34.70;25.57;;;1.90;1.00;2.30;100897.00;;;;5005130;28;20454;-83
2022/03/03 01:14:55;;;;;;;32.90;23.63;;;1.70;1.00;2.20;100876.00;;;;5015181;28;20513;-83
2022/03/03 01:17:23;;;;;;;29.37;24.43;;;1.60;1.00;2.10;100852.00;;;;4991207;28;20451;-82
2022/03/03 01:19:53;;;;;;;26.87;22.27;;;1.60;1.00;2.20;100860.00;;;;4990862;28;20473;-84
2022/03/03 01:22:21;;;;;;;28.80;24.80;;;1.60;1.00;2.10;100935.00;;;;4982344;28;20451;-83
2022/03/03 01:24:49;;;;;;;28.97;23.47;;;1.50;1.00;2.10;100900.00;;;;4987421;28;20482;-83
2022/03/03 01:27:18;;;;;;;27.83;21.53;;;1.90;1.00;2.10;100890.00;;;;4996709;28;20462;-83
2022/03/03 01:29:47;;;;;;;30.83;24.40;;;1.50;1.00;2.10;100806.00;;;;5004542;28;20463;-82
2022/03/03 01:32:15;;;;;;;35.00;23.73;;;1.80;1.00;2.10;100925.00;;;;4984749;28;20505;-84
2022/03/03 01:34:43;;;;;;;29.80;24.83;;;1.60;1.00;2.10;100828.00;;;;4986029;28;20484;-82
2022/03/03 01:37:13;;;;;;;30.23;23.57;;;1.80;1.00;2.20;100931.00;;;;4988709;28;20493;-81
2022/03/03 01:39:41;;;;;;;32.40;23.13;;;1.60;1.00;2.20;100909.00;;;;4998684;28;20833;-81
2022/03/03 01:42:10;;;;;;;28.00;23.83;;;1.60;1.00;2.10;100924.00;;;;5000295;28;20467;-83
2022/03/03 01:44:43;;;;;;;28.60;23.10;;;1.60;1.00;2.10;100937.00;;;;4994888;28;20486;-83
2022/03/03 01:47:18;;;;;;;30.00;25.47;;;1.80;1.00;2.10;100923.00;;;;4994155;28;20474;-81
2022/03/03 01:49:47;;;;;;;28.70;24.60;;;1.80;1.00;2.10;100894.00;;;;4997539;28;20516;-80
2022/03/03 01:52:18;;;;;;;33.37;25.23;;;1.50;1.00;2.00;100906.00;;;;4993314;28;20545;-83
2022/03/03 01:54:47;;;;;;;29.80;24.53;;;1.50;1.00;2.00;100883.00;;;;4994112;28;20479;-81
2022/03/03 01:57:19;;;;;;;29.43;22.40;;;1.50;1.00;1.90;100892.00;;;;4991263;28;20861;-81
2022/03/03 01:59:49;;;;;;;27.60;23.10;;;1.40;1.00;1.90;100887.00;;;;4994300;28;20484;-85
2022/03/03 02:02:17;;;;;;;28.53;22.63;;;1.30;1.00;1.80;100889.00;;;;5012462;28;20450;-83
2022/03/03 02:04:46;;;;;;;31.03;22.20;;;1.70;1.00;1.80;100902.00;;;;4987821;28;20577;-82
2022/03/03 02:07:14;;;;;;;23.10;20.70;;;1.30;1.00;1.80;100910.00;;;;4981637;28;20482;-82
2022/03/03 02:09:44;;;;;;;25.87;21.50;;;1.20;1.00;1.80;100872.00;;;;5002444;28;20463;-82
2022/03/03 02:12:12;;;;;;;27.63;23.53;;;1.60;1.00;1.80;100898.00;;;;4992275;28;20467;-84
2022/03/03 02:14:42;;;;;;;28.53;22.53;;;1.20;1.00;1.70;100883.00;;;;5006575;28;20484;-84
2022/03/03 02:17:10;;;;;;;27.40;23.73;;;1.20;1.00;1.70;100899.00;;;;5005560;28;20465;-82
2022/03/03 02:19:39;;;;;;;31.23;22.67;;;1.20;1.00;1.70;100882.00;;;;5006343;28;20458;-85
2022/03/03 02:22:10;;;;;;;29.90;23.63;;;1.10;1.00;1.40;100893.00;;;;5009228;28;20457;-85
2022/03/03 02:24:39;;;;;;;25.90;22.20;;;1.10;1.00;1.60;100878.00;;;;5004909;28;20576;-81
2022/03/03 02:27:10;;;;;;;27.43;21.73;;;1.30;1.00;1.50;100850.00;;;;5010146;28;20573;-81
2022/03/03 02:29:39;;;;;;;26.90;21.53;;;1.00;1.00;1.50;100831.00;;;;4983524;28;20461;-80
2022/03/03 02:32:09;;;;;;;22.30;19.73;;;0.90;1.00;1.50;100836.00;;;;4995630;28;20463;-82
2022/03/03 02:34:38;;;;;;;24.20;19.60;;;0.90;1.00;1.50;100859.00;;;;5002373;28;20509;-83
2022/03/03 02:37:08;;;;;;;29.53;21.40;;;0.90;1.00;1.50;100848.00;;;;4993460;28;20455;-83
2022/03/03 02:39:36;;;;;;;27.93;20.20;;;0.90;1.00;1.50;100866.00;;;;5001261;28;20940;-84
2022/03/03 02:42:05;;;;;;;25.60;20.80;;;0.80;1.00;1.50;100856.00;;;;5004264;28;20462;-83
2022/03/03 02:44:34;;;;;;;23.40;19.17;;;0.90;1.00;1.50;100865.00;;;;5013039;28;20484;-82
2022/03/03 02:47:02;;;;;;;21.90;18.53;;;1.00;1.00;1.70;100858.00;;;;5002967;28;20475;-84
2022/03/03 02:49:31;;;;;;;23.27;18.60;;;1.00;1.00;1.60;100861.00;;;;5020374;28;20514;-82
2022/03/03 02:51:59;;;;;;;24.70;19.27;;;1.00;1.00;1.50;100822.00;;;;5013413;28;20477;-80
2022/03/03 02:54:29;;;;;;;22.97;18.50;;;1.00;1.00;1.50;100862.00;;;;5006705;28;20542;-81
2022/03/03 02:59:39;;;;;;;24.97;20.20;;;0.90;1.00;1.40;100837.00;;;;5000238;28;20477;-83
2022/03/03 03:02:08;;;;;;;26.27;19.47;;;1.20;1.00;1.40;100856.00;;;;5015723;28;20454;-82
2022/03/03 03:04:37;;;;;;;23.77;18.73;;;0.90;1.00;1.50;100855.00;;;;5022623;28;20465;-83
2022/03/03 03:07:05;;;;;;;27.03;19.53;;;0.80;1.00;1.40;100845.00;;;;5015402;28;20469;-82
2022/03/03 03:09:35;;;;;;;24.03;17.80;;;0.80;1.00;1.40;100765.00;;;;5016300;28;20439;-83
2022/03/03 03:12:05;;;;;;;28.83;20.63;;;0.80;1.00;1.30;100826.00;;;;5034478;28;20481;-83
2022/03/03 03:14:33;;;;;;;21.20;17.63;;;0.80;1.00;1.30;100810.00;;;;5018102;28;20454;-82
2022/03/03 03:17:02;;;;;;;25.03;20.83;;;0.80;1.00;1.30;100793.00;;;;5018046;28;20450;-82
2022/03/03 03:19:30;;;;;;;20.63;17.17;;;0.80;1.00;1.40;100817.00;;;;5011763;28;20470;-83
2022/03/03 03:21:59;;;;;;;22.20;19.10;;;0.80;1.00;1.40;100820.00;;;;5002193;28;20443;-83
2022/03/03 03:24:28;;;;;;;23.90;20.50;;;0.80;1.00;1.40;100847.00;;;;5018297;28;20454;-81
2022/03/03 03:26:57;;;;;;;20.97;16.73;;;0.70;1.00;1.20;100828.00;;;;5011627;28;20455;-81
2022/03/03 03:29:26;;;;;;;22.67;18.70;;;0.70;1.00;1.10;100811.00;;;;5013863;28;20533;-83
2022/03/03 03:31:54;;;;;;;20.70;17.27;;;0.60;1.00;1.10;100831.00;;;;5020116;28;20454;-81
2022/03/03 03:34:22;;;;;;;20.33;15.87;;;0.60;1.00;1.10;100812.00;;;;5005951;28;20482;-82
2022/03/03 03:36:56;;;;;;;21.60;17.70;;;0.50;1.00;1.10;100826.00;;;;5002951;28;20542;-80
2022/03/03 03:39:25;;;;;;;20.43;17.20;;;0.60;1.00;1.10;100838.00;;;;5011210;28;21011;-82
2022/03/03 03:41:53;;;;;;;20.60;17.23;;;0.60;1.00;1.10;100836.00;;;;4994671;28;20454;-81
2022/03/03 03:44:23;;;;;;;20.77;17.30;;;0.60;1.00;1.20;100834.00;;;;5001829;28;20510;-82
2022/03/03 03:46:51;;;;;;;19.43;16.00;;;0.60;1.00;1.10;100858.00;;;;4993491;28;20462;-82
2022/03/03 03:49:20;;;;;;;22.47;16.50;;;0.60;1.00;1.10;100852.00;;;;4993711;28;20480;-80
2022/03/03 03:51:48;;;;;;;23.23;17.00;;;1.00;1.00;1.10;100848.00;;;;4992539;28;20455;-82
2022/03/03 03:54:17;;;;;;;20.60;15.90;;;0.60;1.00;1.10;100833.00;;;;4992301;28;20490;-81
2022/03/03 03:56:45;;;;;;;24.90;16.80;;;0.60;1.00;1.10;100831.00;;;;5004662;28;20462;-80
2022/03/03 03:59:14;;;;;;;20.50;16.67;;;0.60;1.00;1.10;100821.00;;;;4988830;28;20459;-80
2022/03/03 04:01:43;;;;;;;21.17;15.80;;;1.00;1.00;1.10;100800.00;;;;4990631;28;20458;-81
2022/03/03 04:04:12;;;;;;;20.30;16.50;;;0.60;1.00;1.10;100818.00;;;;4991537;28;20865;-81
2022/03/03 04:06:41;;;;;;;20.17;17.97;;;0.60;1.00;1.10;100798.00;;;;4989449;28;20456;-81
2022/03/03 04:09:09;;;;;;;20.07;17.13;;;1.00;1.00;1.20;100813.00;;;;4989095;28;20478;-83
2022/03/03 04:11:38;;;;;;;19.23;16.00;;;0.50;1.00;1.40;100819.00;;;;4984041;28;20451;-80
2022/03/03 04:14:06;;;;;;;21.93;15.77;;;0.60;1.00;1.20;100814.00;;;;4982950;28;20482;-84
2022/03/03 04:16:35;;;;;;;19.43;16.37;;;0.60;1.00;1.10;100531.00;;;;4990045;28;20472;-82
2022/03/03 04:19:05;;;;;;;19.67;16.50;;;0.60;1.00;1.10;100475.00;;;;4983917;28;20470;-83
2022/03/03 04:21:33;;;;;;;20.70;16.20;;;0.50;1.00;1.00;66479.00;;;;4998743;28;20562;-84
2022/03/03 04:24:02;;;;;;;19.27;16.87;;;0.50;1.00;1.10;100339.00;;;;5010566;28;20467;-81
2022/03/03 04:26:30;;;;;;;18.77;16.80;;;0.50;1.00;1.20;100295.00;;;;5007987;28;20461;-82
2022/03/03 04:28:58;;;;;;;21.93;15.73;;;0.50;1.00;1.60;100410.00;;;;5016415;28;20493;-83
2022/03/03 04:31:27;;;;;;;19.33;15.17;;;0.60;1.00;1.40;100381.00;;;;4987619;28;20443;-83
2022/03/03 04:33:56;;;;;;;24.17;16.87;;;1.00;1.00;1.20;100396.00;;;;4985509;28;20557;-84
2022/03/03 04:36:26;;;;;;;23.97;17.67;;;0.60;1.00;1.10;100367.00;;;;4993734;28;20466;-84
2022/03/03 04:38:55;;;;;;;20.97;17.73;;;0.60;1.00;1.00;100346.00;;;;4993224;28;20483;-82
2022/03/03 04:41:23;;;;;;;20.03;15.90;;;0.80;1.00;1.00;100752.00;;;;5008044;28;20497;-83
2022/03/03 04:43:51;;;;;;;20.87;17.57;;;0.40;1.00;0.90;100374.00;;;;5000566;28;20475;-83
2022/03/03 04:46:20;;;;;;;18.60;16.30;;;0.40;1.00;0.90;100364.00;;;;4990869;28;20451;-83
2022/03/03 04:48:48;;;;;;;18.53;15.87;;;0.30;1.00;1.00;100393.00;;;;4991917;28;20489;-83
2022/03/03 04:51:17;;;;;;;19.07;14.80;;;0.40;1.00;1.30;100365.00;;;;4990268;28;20459;-82
2022/03/03 04:53:46;;;;;;;19.87;15.87;;;0.90;1.00;1.10;100354.00;;;;4990410;28;20490;-80
2022/03/03 04:56:16;;;;;;;29.10;18.90;;;0.50;1.00;1.00;100375.00;;;;4990548;28;20997;-83
2022/03/03 04:58:45;;;;;;;22.07;17.60;;;0.70;1.00;1.10;100334.00;;;;5009912;28;20459;-81
2022/03/03 05:01:14;;;;;;;18.37;16.20;;;0.40;1.00;1.00;100337.00;;;;5004644;28;20471;-81
2022/03/03 05:03:43;;;;;;;21.90;16.27;;;0.40;1.00;0.90;100336.00;;;;4983562;28;20916;-84
2022/03/03 05:06:11;;;;;;;18.87;15.57;;;0.30;1.00;0.80;100761.00;;;;4989380;28;20546;-80
2022/03/03 05:08:41;;;;;;;18.50;14.90;;;0.70;1.00;0.70;100774.00;;;;4987883;28;20540;-84
2022/03/03 05:11:11;;;;;;;20.10;15.27;;;0.20;1.00;0.90;100761.00;;;;4995378;28;20447;-83
2022/03/03 05:13:39;;;;;;;21.33;16.70;;;0.20;1.00;0.90;100752.00;;;;4985157;28;20462;-82
2022/03/03 05:16:08;;;;;;;23.97;15.60;;;0.40;1.00;0.90;100743.00;;;;4981444;28;21010;-83
2022/03/03 05:18:36;;;;;;;18.20;15.43;;;0.50;1.00;0.80;100771.00;;;;4997538;28;20459;-84
2022/03/03 05:21:05;;;;;;;19.37;14.00;;;0.30;1.00;0.80;100747.00;;;;4988702;28;20541;-83
2022/03/03 05:23:33;;;;;;;19.20;15.20;;;0.30;1.00;0.80;100741.00;;;;4988950;28;20551;-84
2022/03/03 05:26:02;;;;;;;18.67;16.63;;;0.30;1.00;1.00;100767.00;;;;4994670;28;20490;-82
2022/03/03 05:28:32;;;;;;;20.23;16.67;;;0.30;1.00;0.90;100756.00;;;;5016943;28;20466;-82
2022/03/03 05:31:00;;;;;;;20.23;16.43;;;0.30;1.00;0.80;100743.00;;;;5005419;28;20446;-80
2022/03/03 05:33:29;;;;;;;20.47;17.00;;;0.30;1.00;0.70;100765.00;;;;5014367;28;20501;-82
2022/03/03 05:36:01;;;;;;;21.67;17.50;;;0.20;1.00;0.70;100789.00;;;;5021341;28;20443;-82
2022/03/03 05:38:34;;;;;;;21.53;16.60;;;0.10;1.00;0.70;100780.00;;;;5010249;28;20571;-81
2022/03/03 05:41:03;;;;;;;21.83;16.83;;;0.40;1.00;0.70;100673.00;;;;5004813;28;20472;-83
2022/03/03 05:43:35;;;;;;;23.73;17.27;;;0.10;1.00;0.60;100761.00;;;;5016106;28;20442;-83
2022/03/03 05:46:05;;;;;;;25.33;17.30;;;0.10;1.00;0.60;100761.00;;;;5013927;28;20526;-83
2022/03/03 05:48:33;;;;;;;20.73;16.50;;;0.10;1.00;0.60;100761.00;;;;5012035;28;20474;-82
2022/03/03 05:51:02;;;;;;;21.73;16.40;;;0.00;1.00;0.60;100778.00;;;;5001332;28;20542;-84
2022/03/03 05:53:30;;;;;;;19.73;16.80;;;0.00;1.00;0.50;100749.00;;;;5000484;28;20466;-83
2022/03/03 05:56:01;;;;;;;24.20;16.67;;;0.00;1.00;217.30;156896.00;;;;4998547;28;20454;-81
2022/03/03 05:58:42;;;;;;;23.00;17.03;;;0.00;1.00;0.60;100787.00;;;;4994510;28;20466;-81
2022/03/03 06:01:13;;;;;;;20.37;15.80;;;0.00;1.00;0.60;100782.00;;;;4990616;28;20521;-82
2022/03/03 06:03:42;;;;;;;21.50;16.80;;;0.00;1.00;52.70;156926.00;;;;5004999;28;20505;-82
2022/03/03 06:06:17;;;;;;;22.30;15.20;;;0.10;1.00;0.50;100778.00;;;;5003229;28;20470;-83
2022/03/03 06:08:58;;;;;;;20.60;16.27;;;0.10;1.00;0.80;100793.00;;;;5005380;28;20473;-81
2022/03/03 06:11:28;;;;;;;21.50;15.20;;;0.60;1.00;0.80;100795.00;;;;5009781;28;20457;-84
2022/03/03 06:14:07;;;;;;;20.17;16.10;;;0.20;1.00;1.00;100777.00;;;;4998693;28;20833;-82
2022/03/03 06:16:39;;;;;;;18.50;15.80;;;0.40;1.00;1.00;100797.00;;;;4990513;28;20469;-83
2022/03/03 06:19:07;;;;;;;19.50;16.03;;;0.50;1.00;1.10;100788.00;;;;5000537;28;20474;-81
2022/03/03 06:21:36;;;;;;;22.33;15.57;;;0.60;1.00;1.20;100784.00;;;;5008900;28;20454;-81
2022/03/03 06:24:05;;;;;;;19.37;16.90;;;0.60;1.00;1.30;100780.00;;;;4987207;28;20531;-81
2022/03/03 06:26:36;;;;;;;21.00;15.20;;;0.70;1.00;1.40;100786.00;;;;4985772;28;21081;-85
2022/03/03 06:29:06;;;;;;;20.00;16.33;;;0.80;1.00;1.60;66601.00;;;;4987632;28;20488;-81
2022/03/03 06:31:34;;;;;;;22.93;16.60;;;1.00;1.00;1.70;100795.00;;;;4999929;28;20522;-81
2022/03/03 06:34:03;;;;;;;19.80;15.80;;;1.40;1.00;1.90;66656.00;;;;5001316;28;20522;-82
2022/03/03 06:36:31;;;;;;;21.27;16.00;;;1.20;1.00;2.00;66702.00;;;;5029028;28;20458;-83
2022/03/03 06:38:59;;;;;;;21.73;16.70;;;1.30;1.00;2.10;100783.00;;;;5030648;28;20454;-82
2022/03/03 06:41:28;;;;;;;21.90;16.70;;;1.40;1.00;2.20;100783.00;;;;5017410;28;20445;-82
2022/03/03 06:43:57;;;;;;;21.50;15.87;;;1.70;1.00;2.30;100786.00;;;;5007450;28;20510;-82
2022/03/03 06:46:27;;;;;;;19.97;16.30;;;1.60;1.00;2.40;100779.00;;;;4998447;28;20952;-80
2022/03/03 06:48:55;;;;;;;22.67;16.80;;;1.70;1.00;2.50;100793.00;;;;4987042;28;20451;-80
2022/03/03 06:51:30;;;;;;;23.73;17.53;;;1.80;1.00;2.70;100787.00;;;;5011567;28;20477;-80
2022/03/03 06:54:03;;;;;;;24.27;17.77;;;2.00;1.00;2.80;100782.00;;;;5004396;28;20474;-81
2022/03/03 06:56:32;;;;;;;25.73;17.63;;;2.10;1.00;2.90;100785.00;;;;4991179;28;20455;-81
2022/03/03 06:59:02;;;;;;;24.77;17.37;;;2.20;1.00;217.30;157945.00;;;;4995392;28;20851;-80
2022/03/03 07:01:32;;;;;;;25.87;16.80;;;2.30;1.00;3.00;100757.00;;;;4996159;28;20446;-83
2022/03/03 07:04:00;;;;;;;24.20;18.97;;;2.40;1.00;3.10;100764.00;;;;4998162;28;20498;-80
2022/03/03 07:06:29;;;;;;;18.53;16.53;;;2.40;1.00;3.20;100770.00;;;;4994243;28;20562;-81
2022/03/03 07:09:00;;;;;;;27.03;16.90;;;2.60;1.00;3.40;100762.00;;;;4995709;28;20795;-80
2022/03/03 07:11:31;;;;;;;21.63;15.63;;;2.70;1.00;3.40;100763.00;;;;4992935;28;20477;-80
2022/03/03 07:14:00;;;;;;;21.67;16.47;;;3.00;1.00;3.40;100763.00;;;;5001522;28;20475;-82
2022/03/03 07:16:41;;;;;;;25.47;16.93;;;2.80;1.00;3.50;100748.00;;;;4998810;28;20907;-83
2022/03/03 07:19:26;;;;;;;23.63;15.83;;;2.80;1.00;3.50;100770.00;;;;5000916;28;20497;-82
2022/03/03 07:22:07;;;;;;;23.73;17.10;;;2.80;1.00;3.60;100754.00;;;;5002239;28;20449;-82
2022/03/03 07:24:44;;;;;;;24.20;16.57;;;2.90;1.00;3.60;100753.00;;;;5018520;28;20482;-82
2022/03/03 07:27:20;;;;;;;20.77;16.10;;;3.00;1.00;3.70;100770.00;;;;5003114;28;20446;-83
2022/03/03 07:29:56;;;;;;;20.83;16.43;;;3.00;1.00;3.70;100759.00;;;;5009802;28;20509;-82
2022/03/03 07:32:36;;;;;;;20.00;17.00;;;3.10;1.00;3.80;100750.00;;;;5001880;28;20462;-82
2022/03/03 07:35:09;;;;;;;23.17;17.00;;;3.10;1.00;3.90;100743.00;;;;5011623;28;20474;-81
2022/03/03 07:37:42;;;;;;;19.03;15.50;;;3.20;1.00;3.90;100760.00;;;;5010701;28;20528;-81
2022/03/03 07:40:12;;;;;;;24.43;16.40;;;3.30;1.00;4.10;100767.00;;;;5010936;28;20439;-83
2022/03/03 07:42:41;;;;;;;18.10;15.37;;;3.40;1.00;4.00;100752.00;;;;5002323;28;20459;-83
2022/03/03 07:45:10;;;;;;;21.07;15.80;;;3.40;1.00;4.10;100769.00;;;;4994119;28;20557;-82
2022/03/03 07:47:41;;;;;;;23.70;16.10;;;3.80;1.00;4.00;100759.00;;;;5005517;28;20526;-81
2022/03/03 07:50:10;;;;;;;19.40;15.67;;;3.50;1.00;4.10;100757.00;;;;5006279;28;20520;-81
2022/03/03 07:52:39;;;;;;;19.77;14.77;;;3.50;1.00;4.40;100768.00;;;;5007288;28;20463;-81
2022/03/03 07:55:08;;;;;;;20.60;15.30;;;3.70;1.00;4.50;100769.00;;;;5002382;28;20577;-82
2022/03/03 07:57:52;;;;;;;20.10;17.20;;;3.80;1.00;4.60;100761.00;;;;5010941;28;20481;-82
2022/03/03 08:00:21;;;;;;;18.30;15.97;;;3.90;1.00;4.60;100759.00;;;;5002646;28;20866;-82
2022/03/03 08:02:55;;;;;;;21.03;15.40;;;4.00;1.00;4.60;100764.00;;;;5016563;28;20472;-81
2022/03/03 08:05:23;;;;;;;18.43;15.87;;;4.00;1.00;4.50;100763.00;;;;5000996;28;20478;-82
2022/03/03 08:07:57;;;;;;;21.47;17.13;;;3.90;1.00;4.50;100768.00;;;;4989312;28;20451;-82
2022/03/03 08:10:28;;;;;;;15.13;13.57;;;3.90;1.00;4.50;100789.00;;;;5009975;28;20894;-82
2022/03/03 08:12:59;;;;;;;19.13;14.87;;;4.00;1.00;4.50;100785.00;;;;5009140;28;20450;-80
2022/03/03 08:15:28;;;;;;;17.03;13.90;;;4.00;1.00;4.50;100782.00;;;;5020289;28;20486;-80
2022/03/03 08:17:57;;;;;;;16.60;14.80;;;4.00;1.00;4.60;100766.00;;;;5021216;28;20539;-81
2022/03/03 08:20:26;;;;;;;14.70;13.20;;;4.00;1.00;4.60;100786.00;;;;5006685;28;20466;-81
2022/03/03 08:22:55;;;;;;;20.17;13.73;;;4.00;1.00;4.70;100765.00;;;;5012741;28;20444;-81
2022/03/03 08:25:24;;;;;;;17.30;13.53;;;4.20;1.00;4.70;100786.00;;;;5029370;28;20482;-79
2022/03/03 08:27:54;;;;;;;16.77;13.30;;;4.20;1.00;4.80;100789.00;;;;5021240;28;20478;-80
2022/03/03 08:30:24;;;;;;;17.07;13.70;;;4.30;1.00;4.80;100800.00;;;;5000462;28;20482;-82
2022/03/03 08:33:08;;;;;;;16.07;13.77;;;4.30;1.00;5.10;100801.00;;;;4997105;28;20934;-83
2022/03/03 08:35:39;;;;;;;19.43;13.27;;;4.60;1.00;5.00;100786.00;;;;4989987;28;20509;-82
2022/03/03 08:38:13;;;;;;;16.70;13.23;;;4.50;1.00;5.00;100780.00;;;;5000219;28;20455;-83
2022/03/03 08:40:42;;;;;;;16.27;13.33;;;4.50;1.00;5.20;100799.00;;;;5001306;28;20466;-84
2022/03/03 08:43:15;;;;;;;18.17;14.00;;;4.60;1.00;5.20;100799.00;;;;5022371;28;20459;-82
2022/03/03 08:45:45;;;;;;;18.00;13.53;;;4.70;1.00;5.20;100801.00;;;;4999420;28;20481;-84
2022/03/03 08:48:16;;;;;;;17.47;13.30;;;4.80;1.00;5.20;100796.00;;;;5013310;28;20522;-82
2022/03/03 08:50:44;;;;;;;14.90;13.03;;;4.90;1.00;5.40;100781.00;;;;5015979;28;20478;-81
2022/03/03 08:53:13;;;;;;;14.70;12.87;;;4.90;1.00;5.30;100777.00;;;;5000735;28;20450;-84
2022/03/03 08:55:41;;;;;;;17.07;14.13;;;4.80;1.00;5.40;100795.00;;;;4990995;28;20586;-82
2022/03/03 08:58:10;;;;;;;15.73;13.40;;;4.90;1.00;5.50;100778.00;;;;4989891;28;20520;-84
2022/03/03 09:00:39;;;;;;;16.00;13.20;;;5.00;1.00;5.50;100782.00;;;;4997377;28;21137;-82
2022/03/03 09:03:08;;;;;;;17.70;12.97;;;5.00;1.00;5.70;100775.00;;;;4986830;28;20991;-83
2022/03/03 09:05:37;;;;;;;15.17;13.20;;;5.20;1.00;5.80;100787.00;;;;4991765;28;20562;-83
2022/03/03 09:08:06;;;;;;;19.40;11.90;;;5.30;1.00;5.80;100789.00;;;;4987492;28;20742;-84
2022/03/03 09:10:35;;;;;;;14.07;12.57;;;5.30;1.00;5.70;100786.00;;;;4990198;28;20486;-84
2022/03/03 09:13:03;;;;;;;18.20;13.70;;;5.30;1.00;5.80;100762.00;;;;5004868;28;20537;-84
2022/03/03 09:15:33;;;;;;;16.30;13.37;;;5.40;1.00;5.90;100771.00;;;;4988747;28;20485;-85
2022/03/03 09:18:02;;;;;;;14.03;12.43;;;5.50;1.00;6.00;100753.00;;;;5004506;28;20479;-82
2022/03/03 09:20:32;;;;;;;14.97;13.10;;;5.60;1.00;6.10;100752.00;;;;4989855;28;20466;-83
2022/03/03 09:23:03;;;;;;;12.93;11.53;;;5.60;1.00;6.20;100732.00;;;;5006860;28;20453;-81
2022/03/03 09:25:36;;;;;;;18.90;15.43;;;5.70;1.00;6.20;100738.00;;;;4994815;28;20492;-83
2022/03/03 09:28:06;;;;;;;16.43;12.70;;;5.80;1.00;6.20;100735.00;;;;5005817;28;20464;-82
2022/03/03 09:30:34;;;;;;;13.67;12.30;;;5.80;1.00;6.40;100749.00;;;;5003045;28;20507;-83
2022/03/03 09:33:03;;;;;;;15.17;12.90;;;5.90;1.00;6.40;100733.00;;;;5007131;28;20525;-83
2022/03/03 09:35:33;;;;;;;16.80;13.07;;;6.20;1.00;6.70;100731.00;;;;5022414;28;20557;-83
2022/03/03 09:38:03;;;;;;;14.60;12.17;;;6.20;1.00;6.80;100728.00;;;;4993847;28;20541;-83
2022/03/03 09:40:32;;;;;;;14.80;12.87;;;6.70;1.00;6.90;100727.00;;;;5004993;28;20458;-75
2022/03/03 09:43:04;;;;;;;18.33;13.13;;;6.50;1.00;6.90;100714.00;;;;5001256;28;20454;-76
2022/03/03 09:45:33;;;;;;;14.03;12.07;;;6.60;1.00;7.10;100723.00;;;;4988025;28;20533;-76
2022/03/03 09:48:05;;;;;;;19.00;13.80;;;6.70;1.00;7.20;100722.00;;;;4978910;28;20505;-76
2022/03/03 09:50:37;;;;;;;15.63;13.30;;;6.80;1.00;7.10;100709.00;;;;4987084;28;20571;-76
2022/03/03 09:53:09;;;;;;;14.43;12.83;;;6.80;1.00;7.20;100698.00;;;;4986050;28;20477;-76
2022/03/03 09:55:39;;;;;;;15.60;13.17;;;6.80;1.00;7.30;100712.00;;;;5002837;28;20574;-75
2022/03/03 09:58:07;;;;;;;15.30;12.77;;;7.30;1.00;7.50;100723.00;;;;5000259;28;20466;-75
2022/03/03 10:00:37;;;;;;;14.43;12.63;;;7.10;1.00;7.60;100712.00;;;;4986166;28;20465;-76
2022/03/03 10:03:10;;;;;;;16.00;12.20;;;7.20;1.00;7.70;100710.00;;;;4985863;28;20498;-75
2022/03/03 10:05:42;;;;;;;15.77;12.50;;;7.30;1.00;7.70;100712.00;;;;4985802;28;20506;-76
2022/03/03 10:08:14;;;;;;;14.07;12.53;;;7.40;1.00;7.70;100714.00;;;;4987619;28;20443;-76
2022/03/03 10:10:47;;;;;;;15.27;13.63;;;7.40;1.00;7.90;100710.00;;;;4992926;28;20530;-76
2022/03/03 10:13:18;;;;;;;16.23;12.73;;;7.50;1.00;8.00;100727.00;;;;5005055;28;20489;-76
2022/03/03 10:15:52;;;;;;;16.13;13.27;;;7.60;1.00;8.00;100719.00;;;;4993801;28;20569;-76
2022/03/03 10:18:22;;;;;;;14.67;12.37;;;7.70;1.00;8.10;100719.00;;;;4990728;28;20529;-76
2022/03/03 10:20:53;;;;;;;16.00;12.87;;;7.80;1.00;8.00;100720.00;;;;4981328;28;20533;-76
2022/03/03 10:23:29;;;;;;;15.53;12.60;;;7.90;1.00;8.10;100722.00;;;;4987119;28;20494;-76
2022/03/03 10:26:03;;;;;;;15.00;11.40;;;7.90;1.00;8.30;100715.00;;;;4980444;28;20482;-76
2022/03/03 10:28:34;;;;;;;13.50;12.10;;;7.90;1.00;8.30;100720.00;;;;5002524;28;20459;-77
2022/03/03 10:31:06;;;;;;;17.07;12.77;;;8.00;1.00;8.50;100717.00;;;;5000159;28;21045;-76
2022/03/03 10:33:37;;;;;;;14.23;12.73;;;8.20;1.00;8.60;100733.00;;;;4983611;28;20534;-76
2022/03/03 10:36:14;;;;;;;12.73;11.30;;;8.30;1.00;8.60;100704.00;;;;4985415;28;20477;-75
2022/03/03 10:38:54;;;;;;;13.47;11.23;;;8.40;1.00;8.70;100699.00;;;;4988125;28;20462;-75
2022/03/03 10:41:46;;;;;;;13.33;11.80;;;8.40;1.00;8.80;100703.00;;;;4982278;28;20458;-76
2022/03/03 10:44:19;;;;;;;13.43;12.00;;;8.50;1.00;8.80;100713.00;;;;4988113;28;20621;-76
2022/03/03 10:47:04;;;;;;;14.60;12.37;;;8.50;1.00;9.00;100697.00;;;;4979694;28;20458;-77
2022/03/03 10:49:33;;;;;;;14.50;11.87;;;8.70;1.00;9.00;100703.00;;;;4983301;28;20467;-76
2022/03/03 10:52:16;;;;;;;16.37;12.50;;;8.80;1.00;9.10;100688.00;;;;4983956;28;20525;-75
2022/03/03 10:54:55;;;;;;;16.47;12.57;;;8.90;1.00;9.10;100672.00;;;;4982717;28;21007;-76
2022/03/03 10:57:40;;;;;;;13.77;11.47;;;8.90;1.00;9.30;100700.00;;;;4995056;28;20455;-76
2022/03/03 11:00:14;;;;;;;16.13;12.17;;;9.00;1.00;9.20;100683.00;;;;4983542;28;20465;-77
2022/03/03 11:02:44;;;;;;;13.53;11.70;;;9.00;1.00;9.30;100679.00;;;;4998996;28;20463;-77
2022/03/03 11:05:14;;;;;;;15.83;11.30;;;9.00;1.00;9.40;100681.00;;;;4979887;28;21023;-76
2022/03/03 11:07:46;;;;;;;14.47;11.80;;;9.40;1.00;9.60;100676.00;;;;4989711;28;20482;-77
2022/03/03 11:10:18;;;;;;;12.40;11.10;;;9.30;1.00;9.60;100675.00;;;;4989470;28;20458;-75